Time;durP1;ratioP1;P1;durP2;ratioP2;P2;SDS_P1;SDS_P2;PMS_P1;PMS_P2;Temp;Humidity;BMP_temperature;BMP_pressure;BME280_temperature;BME280_humidity;BME280_pressure;Samples;Min_cycle;Max_cycle;Signal;HPM_P1;HPM_P2
2022/01/14 00:02:08;;;;;;;34.27;20.73;;;5.60;99.90;;;;;;5050495;28;20202;-70
2022/01/14 00:04:35;;;;;;;30.77;21.43;;;5.60;99.90;;;;;;5054408;28;20205;-72
2022/01/14 00:07:01;;;;;;;28.40;20.20;;;5.60;99.90;;;;;;5057164;28;20473;-66
2022/01/14 00:09:26;;;;;;;32.90;22.13;;;5.60;99.90;;;;;;5056046;28;20260;-67
2022/01/14 00:11:56;;;;;;;34.30;22.20;;;5.60;99.90;;;;;;5053647;28;20214;-68
2022/01/14 00:14:57;;;;;;;39.60;21.77;;;5.60;99.90;;;;;;5055763;28;20190;-67
2022/01/14 00:17:13;;;;;;;34.90;21.97;;;5.50;99.90;;;;;;5049551;28;20221;-67
2022/01/14 00:19:40;;;;;;;34.73;21.47;;;5.50;99.90;;;;;;5054536;28;20229;-76
2022/01/14 00:22:11;;;;;;;35.60;21.73;;;5.60;99.90;;;;;;5054995;28;20659;-71
2022/01/14 00:33:02;;;;;;;32.30;20.37;;;5.60;99.90;;;;;;5048650;28;20225;-69
2022/01/14 00:35:27;;;;;;;35.53;21.50;;;5.60;99.90;;;;;;5051331;28;20553;-69
2022/01/14 00:37:53;;;;;;;34.27;21.40;;;5.60;99.90;;;;;;5056989;28;20257;-69
2022/01/14 00:40:19;;;;;;;34.57;21.70;;;5.60;99.90;;;;;;5047952;28;20441;-69
2022/01/14 00:42:45;;;;;;;33.97;22.50;;;5.60;99.90;;;;;;5055346;28;20680;-69
2022/01/14 00:45:14;;;;;;;33.97;21.93;;;5.60;99.90;;;;;;5051741;28;20206;-69
2022/01/14 00:47:40;;;;;;;35.67;21.33;;;5.60;99.90;;;;;;5054375;28;20563;-69
2022/01/14 00:50:08;;;;;;;34.27;21.27;;;5.60;99.90;;;;;;5051268;28;20207;-69
2022/01/14 00:52:34;;;;;;;30.43;20.37;;;5.70;99.90;;;;;;5052428;28;20209;-69
2022/01/14 00:54:59;;;;;;;39.27;21.93;;;5.70;99.90;;;;;;5051026;28;20238;-68
2022/01/14 00:59:14;;;;;;;37.57;22.33;;;5.70;99.90;;;;;;5054825;28;20225;-70
2022/01/14 01:00:18;;;;;;;33.13;21.77;;;5.70;99.90;;;;;;5051178;28;20582;-71
2022/01/14 01:02:44;;;;;;;34.27;19.30;;;5.70;99.90;;;;;;5053450;28;20191;-71
2022/01/14 01:05:12;;;;;;;32.90;20.57;;;5.70;99.90;;;;;;5052594;28;20966;-70
2022/01/14 01:07:40;;;;;;;32.83;21.57;;;5.70;99.90;;;;;;5055484;28;20178;-70
2022/01/14 01:10:06;;;;;;;30.43;20.43;;;5.70;99.90;;;;;;5051396;28;20199;-71
2022/01/14 01:12:45;;;;;;;35.17;21.47;;;5.70;99.90;;;;;;5056616;28;20614;-70
2022/01/14 01:15:14;;;;;;;33.20;21.47;;;5.70;99.90;;;;;;5048032;28;20258;-70
2022/01/14 01:17:40;;;;;;;33.23;21.03;;;5.70;99.90;;;;;;5056483;28;20233;-69
2022/01/14 01:20:12;;;;;;;30.97;18.97;;;5.70;99.90;;;;;;5050921;28;20826;-69
2022/01/14 01:22:38;;;;;;;37.67;21.07;;;5.70;99.90;;;;;;5052205;28;20227;-68
2022/01/14 01:25:04;;;;;;;36.20;20.60;;;5.70;99.90;;;;;;5051125;28;20793;-68
2022/01/14 01:27:36;;;;;;;28.17;19.93;;;5.70;99.90;;;;;;5050071;28;20205;-69
2022/01/14 01:30:14;;;;;;;32.60;19.40;;;5.70;99.90;;;;;;5052099;28;20256;-70
2022/01/14 01:32:40;;;;;;;31.70;20.90;;;5.70;99.90;;;;;;5054049;28;20282;-69
2022/01/14 01:35:06;;;;;;;34.30;20.63;;;5.80;99.90;;;;;;5055959;28;20202;-72
2022/01/14 01:37:31;;;;;;;31.77;20.03;;;5.70;99.90;;;;;;5062698;28;20202;-71
2022/01/14 01:39:56;;;;;;;29.47;20.67;;;5.70;99.90;;;;;;5044864;28;21022;-68
2022/01/14 01:42:27;;;;;;;33.77;21.87;;;5.70;99.90;;;;;;5051874;28;20240;-68
2022/01/14 01:44:53;;;;;;;34.33;20.53;;;5.80;99.90;;;;;;5053094;28;20255;-68
2022/01/14 01:47:22;;;;;;;30.60;20.30;;;5.80;99.90;;;;;;5066185;28;20210;-68
2022/01/14 01:49:47;;;;;;;34.67;21.23;;;5.80;99.90;;;;;;5058786;28;20686;-70
2022/01/14 01:52:13;;;;;;;31.73;19.93;;;5.70;99.90;;;;;;5056085;28;20226;-72
2022/01/14 01:54:38;;;;;;;33.03;20.53;;;5.70;99.90;;;;;;5068745;28;20624;-71
2022/01/14 01:57:05;;;;;;;37.37;22.33;;;5.70;99.90;;;;;;5055030;28;20234;-72
2022/01/14 01:59:30;;;;;;;34.50;21.00;;;5.70;99.90;;;;;;5054962;28;20664;-69
2022/01/14 02:02:00;;;;;;;31.63;18.97;;;5.70;99.90;;;;;;5060066;28;20238;-69
2022/01/14 02:04:27;;;;;;;33.20;19.87;;;5.70;99.90;;;;;;5055949;28;20199;-70
2022/01/14 02:06:54;;;;;;;32.60;20.20;;;5.70;99.90;;;;;;5053686;28;20218;-70
2022/01/14 02:09:21;;;;;;;32.40;19.93;;;5.70;99.90;;;;;;5059774;28;20623;-70
2022/01/14 02:11:46;;;;;;;34.73;20.67;;;5.70;99.90;;;;;;5057112;28;20208;-70
2022/01/14 02:19:30;;;;;;;29.07;20.93;;;5.70;99.90;;;;;;5060508;28;20356;-69
2022/01/14 02:22:12;;;;;;;33.57;19.97;;;5.70;99.90;;;;;;5056387;28;20227;-70
2022/01/14 02:27:05;;;;;;;33.27;20.50;;;5.60;99.90;;;;;;5059225;28;20209;-71
2022/01/14 02:29:31;;;;;;;34.47;19.97;;;5.60;99.90;;;;;;5056513;28;20995;-70
2022/01/14 02:31:58;;;;;;;42.13;23.20;;;5.60;99.90;;;;;;5053343;28;20214;-70
2022/01/14 02:34:24;;;;;;;38.70;21.83;;;5.60;99.90;;;;;;5057059;28;20186;-70
2022/01/14 02:36:49;;;;;;;32.10;20.93;;;5.60;99.90;;;;;;5053429;28;20258;-69
2022/01/14 02:39:20;;;;;;;32.83;20.40;;;5.60;99.90;;;;;;5057751;28;20191;-69
2022/01/14 02:41:47;;;;;;;34.93;20.00;;;5.60;99.90;;;;;;5059854;28;20206;-72
2022/01/14 02:44:24;;;;;;;39.60;22.77;;;5.70;99.90;;;;;;5055360;28;20181;-71
2022/01/14 02:46:56;;;;;;;38.53;21.23;;;5.70;99.90;;;;;;5053726;28;20688;-68
2022/01/14 02:49:23;;;;;;;34.73;20.33;;;5.70;99.90;;;;;;5056048;28;20677;-68
2022/01/14 02:51:49;;;;;;;37.00;22.13;;;5.70;99.90;;;;;;5053682;28;20203;-69
2022/01/14 02:54:22;;;;;;;42.10;22.67;;;5.70;99.90;;;;;;5057618;28;20534;-69
2022/01/14 02:56:51;;;;;;;42.87;22.60;;;5.60;99.90;;;;;;5053102;28;20552;-69
2022/01/14 02:59:18;;;;;;;39.63;22.03;;;5.60;99.90;;;;;;5058373;28;20190;-69
2022/01/14 03:01:48;;;;;;;38.43;21.37;;;5.60;99.90;;;;;;5054500;28;20649;-69
2022/01/14 03:04:21;;;;;;;44.90;22.97;;;5.60;99.90;;;;;;5056303;28;20184;-69
2022/01/14 03:06:48;;;;;;;35.30;21.80;;;5.50;99.90;;;;;;5056771;28;20323;-69
2022/01/14 03:09:14;;;;;;;42.57;23.97;;;5.50;99.90;;;;;;5055157;28;20598;-69
2022/01/14 03:11:45;;;;;;;38.33;21.73;;;5.50;99.90;;;;;;5055358;28;20267;-69
2022/01/14 03:14:13;;;;;;;39.27;23.40;;;5.40;99.90;;;;;;5057174;28;20703;-69
2022/01/14 03:16:41;;;;;;;36.87;22.00;;;5.40;99.90;;;;;;5055940;28;20692;-68
2022/01/14 03:19:15;;;;;;;40.77;23.50;;;5.40;99.90;;;;;;5057048;28;20238;-69
2022/01/14 03:21:42;;;;;;;40.67;21.80;;;5.50;99.90;;;;;;5053492;28;20250;-68
2022/01/14 03:24:19;;;;;;;41.03;25.07;;;5.40;99.90;;;;;;5054801;28;20186;-68
2022/01/14 03:26:46;;;;;;;47.03;24.40;;;5.40;99.90;;;;;;5055577;28;20211;-67
2022/01/14 03:29:13;;;;;;;50.93;24.13;;;5.50;99.90;;;;;;5057960;28;20186;-68
2022/01/14 03:31:39;;;;;;;46.67;25.07;;;5.40;99.90;;;;;;5054847;28;20202;-68
2022/01/14 03:34:05;;;;;;;45.10;23.07;;;5.40;99.90;;;;;;5050845;28;20252;-68
2022/01/14 03:36:30;;;;;;;43.30;23.13;;;5.30;99.90;;;;;;5054882;28;20217;-68
2022/01/14 03:38:56;;;;;;;46.03;24.13;;;5.40;99.90;;;;;;5053761;28;20202;-63
2022/01/14 03:41:21;;;;;;;34.70;22.30;;;5.40;99.90;;;;;;5053668;28;20239;-62
2022/01/14 03:43:47;;;;;;;36.37;22.60;;;5.50;99.90;;;;;;5051304;28;20195;-63
2022/01/14 03:46:12;;;;;;;38.53;22.73;;;5.40;99.90;;;;;;5057691;28;20189;-63
2022/01/14 03:48:38;;;;;;;42.70;21.77;;;5.40;99.90;;;;;;5055039;28;20271;-62
2022/01/14 03:51:04;;;;;;;33.27;21.43;;;5.40;99.90;;;;;;5056607;28;20201;-62
2022/01/14 03:53:29;;;;;;;39.37;23.07;;;5.30;99.90;;;;;;5055852;28;20673;-62
2022/01/14 03:55:55;;;;;;;40.40;23.97;;;5.30;99.90;;;;;;5056722;28;20191;-63
2022/01/14 03:58:20;;;;;;;36.83;22.10;;;5.20;99.90;;;;;;5051788;28;20486;-62
2022/01/14 04:00:46;;;;;;;45.80;24.00;;;5.30;99.90;;;;;;5053645;28;20194;-62
2022/01/14 04:03:12;;;;;;;39.23;23.43;;;5.30;99.90;;;;;;5058280;28;20969;-63
2022/01/14 04:05:37;;;;;;;34.10;21.93;;;5.30;99.90;;;;;;5054739;28;20198;-63
2022/01/14 04:08:03;;;;;;;38.33;21.97;;;5.30;99.90;;;;;;5053236;28;20206;-63
2022/01/14 04:10:29;;;;;;;38.73;21.63;;;5.30;99.90;;;;;;5057621;28;20197;-67
2022/01/14 04:13:02;;;;;;;36.20;21.93;;;5.30;99.90;;;;;;5054407;28;20214;-62
2022/01/14 04:15:42;;;;;;;34.00;22.60;;;5.30;99.90;;;;;;5055868;28;20183;-62
2022/01/14 04:18:13;;;;;;;37.73;23.53;;;5.30;99.90;;;;;;5054639;28;20221;-64
2022/01/14 04:20:39;;;;;;;39.20;21.83;;;5.20;99.90;;;;;;5052385;28;20698;-63
2022/01/14 04:23:06;;;;;;;42.50;24.37;;;5.20;99.90;;;;;;5048564;28;20636;-62
2022/01/14 04:25:33;;;;;;;34.70;23.57;;;5.20;99.90;;;;;;5060469;28;20800;-62
2022/01/14 04:27:58;;;;;;;42.90;23.57;;;5.30;99.90;;;;;;5053657;28;20203;-61
2022/01/14 04:30:24;;;;;;;38.27;22.80;;;5.20;99.90;;;;;;5065799;28;20206;-62
2022/01/14 04:32:50;;;;;;;42.67;22.60;;;5.30;99.90;;;;;;5061346;28;20214;-62
2022/01/14 04:35:16;;;;;;;40.13;21.60;;;5.20;99.90;;;;;;5064893;28;20681;-64
2022/01/14 04:37:42;;;;;;;42.17;24.40;;;5.20;99.90;;;;;;5055749;28;20198;-63
2022/01/14 04:40:08;;;;;;;38.90;23.10;;;5.20;99.90;;;;;;5058503;28;20183;-62
2022/01/14 04:42:34;;;;;;;43.13;24.50;;;5.20;99.90;;;;;;5063115;28;20201;-62
2022/01/14 04:45:00;;;;;;;39.30;23.30;;;5.20;99.90;;;;;;5057345;28;20182;-62
2022/01/14 04:47:47;;;;;;;36.90;23.57;;;5.20;99.90;;;;;;5058051;28;20195;-62
2022/01/14 04:50:14;;;;;;;39.23;22.63;;;5.20;99.90;;;;;;5055911;28;20674;-62
2022/01/14 04:52:41;;;;;;;37.80;23.93;;;5.20;99.90;;;;;;5063028;28;20629;-62
2022/01/14 04:55:08;;;;;;;43.00;23.83;;;5.20;99.90;;;;;;5062183;28;20364;-63
2022/01/14 04:57:34;;;;;;;40.50;22.50;;;5.20;99.90;;;;;;5056080;28;20206;-63
2022/01/14 04:59:59;;;;;;;42.43;23.10;;;5.20;99.90;;;;;;5061806;28;20549;-63
2022/01/14 05:02:26;;;;;;;40.23;23.97;;;5.20;99.90;;;;;;5057058;28;20202;-63
2022/01/14 05:04:54;;;;;;;34.17;23.90;;;5.20;99.90;;;;;;5045251;28;20651;-63
2022/01/14 05:07:24;;;;;;;40.43;22.67;;;5.20;99.90;;;;;;5057961;28;20661;-63
2022/01/14 05:12:42;;;;;;;42.07;23.50;;;5.10;99.90;;;;;;5053068;28;20227;-62
2022/01/14 05:15:09;;;;;;;43.33;24.80;;;5.20;99.90;;;;;;5064383;28;20222;-62
2022/01/14 05:17:34;;;;;;;41.87;23.33;;;5.20;99.90;;;;;;5062525;28;20209;-63
2022/01/14 05:20:00;;;;;;;43.73;25.83;;;5.20;99.90;;;;;;5065132;28;20216;-63
2022/01/14 05:22:26;;;;;;;40.73;24.93;;;5.10;99.90;;;;;;5062849;28;20256;-63
2022/01/14 05:24:52;;;;;;;42.53;24.07;;;5.10;99.90;;;;;;5054194;28;20525;-62
2022/01/14 05:27:18;;;;;;;40.97;26.23;;;5.10;99.90;;;;;;5062912;28;20224;-62
2022/01/14 05:29:44;;;;;;;39.13;24.80;;;5.10;99.90;;;;;;5058006;28;20182;-63
2022/01/14 05:32:13;;;;;;;41.63;25.33;;;5.20;99.90;;;;;;5062468;28;20217;-63
2022/01/14 05:34:40;;;;;;;43.40;25.97;;;5.20;99.90;;;;;;5051145;28;20214;-63
2022/01/14 05:37:06;;;;;;;42.53;24.07;;;5.20;99.90;;;;;;5062381;28;20216;-63
2022/01/14 05:39:33;;;;;;;42.20;26.30;;;5.20;99.90;;;;;;5055734;28;20182;-61
2022/01/14 05:42:00;;;;;;;39.90;25.33;;;5.20;99.90;;;;;;5062068;28;20198;-61
2022/01/14 05:44:26;;;;;;;45.07;24.13;;;5.20;99.90;;;;;;5060630;28;20182;-62
2022/01/14 05:46:53;;;;;;;43.83;25.43;;;5.20;99.90;;;;;;5062063;28;20641;-62
2022/01/14 05:49:18;;;;;;;45.33;26.40;;;5.20;99.90;;;;;;5053536;28;20183;-61
2022/01/14 05:51:45;;;;;;;42.07;23.07;;;5.20;99.90;;;;;;5062587;28;20190;-62
2022/01/14 05:54:11;;;;;;;37.37;23.60;;;5.20;99.90;;;;;;5051368;28;20186;-62
2022/01/14 05:56:36;;;;;;;41.60;24.67;;;5.20;99.90;;;;;;5064596;28;20196;-62
2022/01/14 05:59:03;;;;;;;38.60;23.10;;;5.20;99.90;;;;;;5044980;28;20201;-61
2022/01/14 06:01:31;;;;;;;42.67;24.13;;;5.20;99.90;;;;;;5064198;28;20186;-62
2022/01/14 06:04:02;;;;;;;48.80;27.07;;;5.20;99.90;;;;;;5054169;28;20210;-62
2022/01/14 06:06:28;;;;;;;41.80;25.30;;;5.20;99.90;;;;;;5064105;28;20198;-62
2022/01/14 06:08:54;;;;;;;54.87;25.20;;;5.20;99.90;;;;;;5049892;28;20274;-63
2022/01/14 06:11:20;;;;;;;46.30;25.27;;;5.20;99.90;;;;;;5063852;28;20197;-62
2022/01/14 06:13:46;;;;;;;52.17;29.57;;;5.10;99.90;;;;;;5052249;28;20229;-62
2022/01/14 06:16:12;;;;;;;64.83;30.63;;;5.10;99.90;;;;;;5064303;28;20592;-62
2022/01/14 06:18:37;;;;;;;61.20;29.93;;;5.00;99.90;;;;;;5052847;28;20210;-62
2022/01/14 06:21:04;;;;;;;66.40;34.23;;;5.00;99.90;;;;;;5063592;28;20236;-62
2022/01/14 06:23:30;;;;;;;59.77;30.33;;;4.90;99.90;;;;;;5048486;28;20831;-62
2022/01/14 06:25:55;;;;;;;68.80;33.67;;;4.90;99.90;;;;;;5064268;28;20224;-62
2022/01/14 06:28:21;;;;;;;69.67;35.10;;;5.00;99.90;;;;;;5049178;28;20226;-62
2022/01/14 06:30:46;;;;;;;56.03;29.17;;;4.90;99.90;;;;;;5067161;28;20201;-62
2022/01/14 06:33:12;;;;;;;62.60;31.33;;;4.90;99.90;;;;;;5054731;28;20210;-62
2022/01/14 06:35:38;;;;;;;62.13;33.10;;;4.90;99.90;;;;;;5065598;28;20198;-64
2022/01/14 06:38:03;;;;;;;70.63;34.43;;;4.80;99.90;;;;;;5067781;28;20182;-61
2022/01/14 06:40:29;;;;;;;67.80;32.47;;;4.80;99.90;;;;;;5059617;28;20487;-62
2022/01/14 06:42:55;;;;;;;66.10;32.40;;;4.80;99.90;;;;;;5060650;28;20191;-62
2022/01/14 06:45:21;;;;;;;65.00;31.27;;;4.80;99.90;;;;;;5060240;28;20195;-61
2022/01/14 06:47:46;;;;;;;68.47;33.97;;;4.90;99.90;;;;;;5063006;28;20250;-64
2022/01/14 06:50:12;;;;;;;62.23;33.50;;;4.90;99.90;;;;;;5061929;28;20322;-63
2022/01/14 06:52:38;;;;;;;61.57;31.47;;;4.90;99.90;;;;;;5058105;28;20699;-63
2022/01/14 06:55:04;;;;;;;61.47;33.33;;;4.90;99.90;;;;;;5062722;28;20885;-62
2022/01/14 06:57:30;;;;;;;54.10;28.20;;;4.90;99.90;;;;;;5060653;28;20178;-63
2022/01/14 06:59:55;;;;;;;55.13;29.60;;;4.90;99.90;;;;;;5064020;28;20186;-62
2022/01/14 07:02:21;;;;;;;50.80;28.30;;;5.00;99.90;;;;;;5059820;28;20181;-62
2022/01/14 07:04:46;;;;;;;52.83;28.07;;;5.00;99.90;;;;;;5064673;28;20272;-62
2022/01/14 07:07:12;;;;;;;51.07;27.53;;;5.10;99.90;;;;;;5058432;28;20185;-61
2022/01/14 07:09:55;;;;;;;45.93;25.93;;;5.10;99.90;;;;;;5067332;28;20597;-62
2022/01/14 07:12:25;;;;;;;52.53;26.27;;;5.10;99.90;;;;;;5054694;28;20218;-62
2022/01/14 07:14:51;;;;;;;51.80;27.33;;;5.20;99.90;;;;;;5064028;28;20197;-61
2022/01/14 07:17:16;;;;;;;44.90;26.73;;;5.20;99.90;;;;;;5058777;28;20292;-61
2022/01/14 07:19:42;;;;;;;41.67;23.53;;;5.20;99.90;;;;;;5065044;28;20282;-62
2022/01/14 07:22:08;;;;;;;47.03;24.07;;;5.10;99.90;;;;;;5058476;28;20232;-62
2022/01/14 07:24:33;;;;;;;44.43;24.00;;;5.10;99.90;;;;;;5066571;28;20206;-62
2022/01/14 07:26:59;;;;;;;43.20;23.37;;;5.10;99.90;;;;;;5050029;28;20629;-62
2022/01/14 07:29:24;;;;;;;40.17;23.50;;;5.10;99.90;;;;;;5067225;28;20194;-62
2022/01/14 07:31:51;;;;;;;35.97;22.43;;;5.10;99.90;;;;;;5055085;28;20205;-62
2022/01/14 07:34:17;;;;;;;34.87;21.50;;;5.20;99.90;;;;;;5066956;28;20554;-62
2022/01/14 07:36:42;;;;;;;37.67;23.57;;;5.20;99.90;;;;;;5050804;28;20693;-63
2022/01/14 07:39:08;;;;;;;46.07;23.33;;;5.30;99.90;;;;;;5066522;28;20186;-63
2022/01/14 07:41:33;;;;;;;36.90;21.40;;;5.30;99.90;;;;;;5054693;28;20826;-63
2022/01/14 07:43:59;;;;;;;33.17;21.10;;;5.20;99.90;;;;;;5066303;28;20194;-64
2022/01/14 07:46:24;;;;;;;41.87;21.63;;;5.20;99.90;;;;;;5055119;28;20229;-64
2022/01/14 07:48:50;;;;;;;40.83;21.37;;;5.30;99.90;;;;;;5066535;28;20267;-64
2022/01/14 07:51:15;;;;;;;34.63;20.27;;;5.20;99.90;;;;;;5054722;28;20199;-63
2022/01/14 07:53:41;;;;;;;41.73;21.77;;;5.10;99.90;;;;;;5066255;28;20580;-64
2022/01/14 07:56:11;;;;;;;43.30;22.77;;;5.10;99.90;;;;;;5059010;28;20238;-64
2022/01/14 07:58:37;;;;;;;35.67;20.73;;;5.10;99.90;;;;;;5066798;28;20185;-63
2022/01/14 08:01:02;;;;;;;40.10;20.40;;;5.20;99.90;;;;;;5062741;28;20273;-62
2022/01/14 08:03:28;;;;;;;37.53;23.17;;;5.20;99.90;;;;;;5063647;28;20225;-63
2022/01/14 08:05:54;;;;;;;36.20;21.10;;;5.10;99.90;;;;;;5063771;28;20198;-63
2022/01/14 08:08:20;;;;;;;34.00;19.90;;;5.20;99.90;;;;;;5065643;28;20202;-62
2022/01/14 08:10:45;;;;;;;31.83;17.50;;;5.20;99.90;;;;;;5055401;28;20197;-62
2022/01/14 08:13:10;;;;;;;33.73;19.17;;;5.30;99.90;;;;;;5065293;28;20217;-63
2022/01/14 08:15:36;;;;;;;31.90;19.07;;;5.30;99.90;;;;;;5064214;28;20560;-62
2022/01/14 08:18:02;;;;;;;36.17;19.73;;;5.30;99.90;;;;;;5056278;28;20206;-62
2022/01/14 08:20:28;;;;;;;32.33;17.40;;;5.30;99.90;;;;;;5059668;28;20213;-62
2022/01/14 08:22:54;;;;;;;37.87;19.93;;;5.30;99.90;;;;;;5060807;28;20199;-62
2022/01/14 08:25:19;;;;;;;38.57;21.10;;;5.30;99.90;;;;;;5062871;28;20286;-62
2022/01/14 08:27:45;;;;;;;35.90;20.63;;;5.20;99.90;;;;;;5048678;28;20190;-62
2022/01/14 08:30:11;;;;;;;31.80;19.20;;;5.30;99.90;;;;;;5063767;28;20339;-62
2022/01/14 08:32:37;;;;;;;31.77;20.50;;;5.30;99.90;;;;;;5052133;28;20213;-62
2022/01/14 08:35:03;;;;;;;41.33;21.77;;;5.30;99.90;;;;;;5063391;28;21205;-62
2022/01/14 08:37:29;;;;;;;37.20;20.87;;;5.30;99.90;;;;;;5048779;28;20529;-62
2022/01/14 08:39:55;;;;;;;33.10;18.70;;;5.20;99.90;;;;;;5059466;28;20195;-62
2022/01/14 08:42:21;;;;;;;34.93;18.70;;;5.20;99.90;;;;;;5057271;28;20170;-62
2022/01/14 08:44:46;;;;;;;38.93;21.83;;;5.30;99.90;;;;;;5060847;28;20201;-62
2022/01/14 08:47:11;;;;;;;43.83;22.23;;;5.30;99.90;;;;;;5058953;28;20216;-62
2022/01/14 08:49:40;;;;;;;36.57;20.87;;;5.20;99.90;;;;;;5062572;28;20534;-62
2022/01/14 08:52:06;;;;;;;33.90;19.93;;;5.20;99.90;;;;;;5050469;28;20269;-62
2022/01/14 08:54:32;;;;;;;32.57;21.30;;;5.20;99.90;;;;;;5061478;28;20196;-62
2022/01/14 08:56:57;;;;;;;34.00;20.80;;;5.20;99.90;;;;;;5054069;28;20174;-62
2022/01/14 08:59:23;;;;;;;41.93;20.30;;;5.20;99.90;;;;;;5065050;28;20191;-62
2022/01/14 09:01:49;;;;;;;42.30;22.13;;;5.20;99.90;;;;;;5065651;28;20385;-62
2022/01/14 09:04:15;;;;;;;34.43;21.93;;;5.20;99.90;;;;;;5064789;28;20374;-62
2022/01/14 09:06:41;;;;;;;31.83;20.20;;;5.20;99.90;;;;;;5051064;28;20261;-61
2022/01/14 09:09:06;;;;;;;37.57;22.07;;;5.20;99.90;;;;;;5064583;28;20675;-61
2022/01/14 09:11:33;;;;;;;35.10;19.87;;;5.20;99.90;;;;;;5050378;28;20251;-63
2022/01/14 09:13:58;;;;;;;38.73;20.80;;;5.30;99.90;;;;;;5064645;28;20311;-62
2022/01/14 09:16:24;;;;;;;35.93;20.37;;;5.30;99.90;;;;;;5054498;28;20555;-62
2022/01/14 09:18:49;;;;;;;41.17;20.13;;;5.30;99.90;;;;;;5064537;28;20182;-62
2022/01/14 09:21:17;;;;;;;38.40;20.50;;;5.30;99.90;;;;;;5059221;28;20226;-62
2022/01/14 09:23:51;;;;;;;36.83;21.17;;;5.30;99.90;;;;;;5058153;28;20194;-62
2022/01/14 09:26:17;;;;;;;36.50;21.00;;;5.40;99.90;;;;;;5044953;28;20229;-62
2022/01/14 09:28:42;;;;;;;36.80;20.67;;;5.40;99.90;;;;;;5063852;28;20206;-62
2022/01/14 09:31:08;;;;;;;41.90;20.80;;;5.40;99.90;;;;;;5048264;28;20203;-62
2022/01/14 09:33:34;;;;;;;34.27;20.13;;;5.40;99.90;;;;;;5062780;28;20213;-63
2022/01/14 09:35:59;;;;;;;38.07;18.13;;;5.40;99.90;;;;;;5054469;28;20740;-64
2022/01/14 09:38:25;;;;;;;37.80;20.10;;;5.50;99.90;;;;;;5059464;28;20194;-63
2022/01/14 09:40:52;;;;;;;35.23;19.53;;;5.50;99.90;;;;;;5049721;28;20582;-64
2022/01/14 09:43:19;;;;;;;36.00;18.03;;;5.50;99.90;;;;;;5064521;28;20205;-62
2022/01/14 09:45:45;;;;;;;32.03;18.73;;;5.60;99.90;;;;;;5051262;28;20191;-62
2022/01/14 09:48:14;;;;;;;36.37;19.30;;;5.60;99.90;;;;;;5063929;28;20289;-62
2022/01/14 09:50:40;;;;;;;31.17;17.93;;;5.60;99.90;;;;;;5060219;28;20640;-63
2022/01/14 09:53:05;;;;;;;32.10;19.13;;;5.70;99.90;;;;;;5063565;28;20214;-63
2022/01/14 09:55:31;;;;;;;32.97;19.53;;;5.70;99.90;;;;;;5062576;28;20194;-63
2022/01/14 09:57:58;;;;;;;29.70;16.87;;;5.60;99.90;;;;;;5064283;28;20756;-63
2022/01/14 10:00:23;;;;;;;28.90;17.53;;;5.60;99.90;;;;;;5062205;28;20208;-62
2022/01/14 10:02:52;;;;;;;28.90;16.07;;;5.70;99.90;;;;;;5064027;28;20182;-62
2022/01/14 10:05:37;;;;;;;30.07;15.73;;;5.70;99.90;;;;;;5059289;28;20208;-64
2022/01/14 10:08:10;;;;;;;31.67;15.40;;;5.70;99.90;;;;;;5067674;28;20718;-61
2022/01/14 10:10:38;;;;;;;29.93;17.43;;;5.70;99.90;;;;;;5056720;28;20666;-63
2022/01/14 10:13:15;;;;;;;35.07;17.10;;;5.70;99.90;;;;;;5067299;28;20214;-64
2022/01/14 10:15:45;;;;;;;34.00;17.00;;;5.70;99.90;;;;;;5056905;28;20676;-64
2022/01/14 10:18:13;;;;;;;22.03;14.83;;;5.70;99.90;;;;;;5061917;28;20286;-64
2022/01/14 10:20:39;;;;;;;28.67;14.60;;;5.70;99.90;;;;;;5056294;28;20225;-64
2022/01/14 10:23:04;;;;;;;25.77;14.63;;;5.80;99.90;;;;;;5069043;28;20883;-64
2022/01/14 10:25:30;;;;;;;24.63;14.47;;;5.80;99.90;;;;;;5066528;28;20496;-64
2022/01/14 10:27:55;;;;;;;22.90;15.37;;;5.80;99.90;;;;;;5068414;28;20572;-63
2022/01/14 10:30:32;;;;;;;20.53;13.00;;;5.90;99.90;;;;;;5058180;28;20199;-63
2022/01/14 10:33:03;;;;;;;22.73;13.17;;;5.90;99.90;;;;;;5067444;28;20617;-65
2022/01/14 10:35:34;;;;;;;21.87;12.80;;;5.90;99.90;;;;;;5053496;28;20194;-64
2022/01/14 10:38:03;;;;;;;23.33;13.23;;;6.00;99.90;;;;;;5057357;28;20645;-64
2022/01/14 10:40:30;;;;;;;19.63;12.83;;;6.00;99.90;;;;;;5055716;28;20198;-64
2022/01/14 10:43:04;;;;;;;15.97;10.03;;;6.00;99.90;;;;;;5058843;28;20943;-63
2022/01/14 10:45:30;;;;;;;27.40;12.70;;;6.10;99.90;;;;;;5055036;28;20199;-63
2022/01/14 10:47:59;;;;;;;20.07;12.27;;;6.10;99.90;;;;;;5056160;28;20681;-62
2022/01/14 10:50:36;;;;;;;21.43;10.83;;;6.10;99.90;;;;;;5055808;28;20241;-67
2022/01/14 10:53:08;;;;;;;20.10;11.53;;;6.20;99.90;;;;;;5067357;28;20425;-66
2022/01/14 10:55:40;;;;;;;18.83;10.27;;;6.40;99.90;;;;;;5059284;28;20198;-65
2022/01/14 10:58:12;;;;;;;22.57;10.50;;;6.70;99.90;;;;;;5052902;28;20519;-67
2022/01/14 11:00:43;;;;;;;19.83;10.47;;;6.80;99.90;;;;;;5052549;28;20294;-68
2022/01/14 11:03:09;;;;;;;18.97;9.07;;;6.80;99.90;;;;;;5057609;28;20236;-67
2022/01/14 11:05:35;;;;;;;20.30;9.87;;;6.90;99.90;;;;;;5053834;28;20230;-67
2022/01/14 11:08:01;;;;;;;17.47;10.80;;;6.90;99.90;;;;;;5055131;28;20225;-68
2022/01/14 11:10:33;;;;;;;20.47;10.17;;;6.90;99.90;;;;;;5058419;28;20267;-68
2022/01/14 11:13:00;;;;;;;17.03;10.23;;;7.10;99.90;;;;;;5055141;28;20629;-67
2022/01/14 11:15:28;;;;;;;15.63;8.83;;;7.20;99.90;;;;;;5049978;28;20210;-68
2022/01/14 11:17:56;;;;;;;13.17;9.80;;;7.20;99.90;;;;;;5055358;28;20572;-68
2022/01/14 11:20:29;;;;;;;13.07;8.83;;;7.20;99.90;;;;;;5053115;28;20186;-66
2022/01/14 11:25:46;;;;;;;10.87;8.17;;;7.20;99.90;;;;;;5055127;28;20580;-66
2022/01/14 11:28:16;;;;;;;15.47;9.07;;;7.20;99.90;;;;;;5057285;28;20211;-66
2022/01/14 11:30:42;;;;;;;14.27;8.70;;;7.20;99.90;;;;;;5058209;28;20202;-65
2022/01/14 11:33:08;;;;;;;11.47;7.93;;;7.30;99.90;;;;;;5056837;28;20559;-67
2022/01/14 11:35:37;;;;;;;19.30;9.13;;;7.30;99.90;;;;;;5052497;28;20234;-66
2022/01/14 11:38:23;;;;;;;10.37;7.63;;;7.40;99.90;;;;;;5054706;28;20321;-68
2022/01/14 11:40:50;;;;;;;23.20;9.90;;;7.30;99.90;;;;;;5052729;28;20203;-66
2022/01/14 11:43:38;;;;;;;17.37;9.40;;;7.30;99.90;;;;;;5054529;28;20190;-66
2022/01/14 11:46:03;;;;;;;16.03;9.87;;;7.30;99.90;;;;;;5056429;28;20197;-66
2022/01/14 11:48:40;;;;;;;19.47;8.47;;;7.40;99.90;;;;;;5055673;28;21031;-66
2022/01/14 11:51:07;;;;;;;14.93;8.53;;;7.40;99.90;;;;;;5055435;28;21010;-67
2022/01/14 11:53:37;;;;;;;13.17;7.73;;;7.40;99.90;;;;;;5057091;28;20256;-66
2022/01/14 11:56:05;;;;;;;13.23;7.17;;;7.50;99.90;;;;;;5052960;28;20289;-68
2022/01/14 11:58:30;;;;;;;14.27;7.20;;;7.50;99.90;;;;;;5052265;28;20306;-68
2022/01/14 12:00:56;;;;;;;13.03;7.33;;;7.50;99.90;;;;;;5052648;28;20629;-67
2022/01/14 12:03:26;;;;;;;15.00;7.97;;;7.50;99.90;;;;;;5066171;28;20237;-67
2022/01/14 12:06:08;;;;;;;13.00;6.93;;;7.50;99.90;;;;;;5053724;28;20711;-68
2022/01/14 12:08:35;;;;;;;15.40;8.17;;;7.50;99.90;;;;;;5062624;28;20201;-67
2022/01/14 12:11:07;;;;;;;14.87;8.10;;;7.50;99.90;;;;;;5058496;28;20194;-66
2022/01/14 12:13:40;;;;;;;16.33;8.60;;;7.40;99.90;;;;;;5064853;28;20233;-68
2022/01/14 12:16:05;;;;;;;13.47;7.23;;;7.50;99.90;;;;;;5055464;28;20240;-69
2022/01/14 12:18:49;;;;;;;15.47;8.53;;;7.50;99.90;;;;;;5059787;28;20650;-69
2022/01/14 12:21:15;;;;;;;12.77;6.77;;;7.50;99.90;;;;;;5053288;28;20213;-67
2022/01/14 12:23:41;;;;;;;16.53;7.47;;;7.60;99.90;;;;;;5054063;28;20171;-68
2022/01/14 12:26:14;;;;;;;12.10;7.97;;;7.60;99.90;;;;;;5052800;28;20260;-66
2022/01/14 12:28:40;;;;;;;12.53;7.53;;;7.50;99.90;;;;;;5062819;28;20631;-66
2022/01/14 12:31:05;;;;;;;11.07;7.07;;;7.50;99.90;;;;;;5055144;28;20182;-65
2022/01/14 12:33:40;;;;;;;14.90;6.80;;;7.50;99.90;;;;;;5065124;28;20210;-65
2022/01/14 12:36:22;;;;;;;12.50;7.83;;;7.50;99.90;;;;;;5063920;28;20331;-65
2022/01/14 12:38:49;;;;;;;14.23;8.90;;;7.60;99.90;;;;;;5062117;28;20465;-66
2022/01/14 12:41:20;;;;;;;12.93;6.73;;;7.50;99.90;;;;;;5052270;28;20208;-68
2022/01/14 12:43:54;;;;;;;17.20;7.67;;;7.50;99.90;;;;;;5063268;28;20229;-69
2022/01/14 12:46:36;;;;;;;13.33;6.40;;;7.30;99.90;;;;;;5053942;28;20267;-71
2022/01/14 12:49:07;;;;;;;16.63;6.90;;;7.40;99.90;;;;;;5049085;28;20823;-69
2022/01/14 12:51:33;;;;;;;13.27;8.67;;;7.40;99.90;;;;;;5051037;28;20256;-68
2022/01/14 12:54:01;;;;;;;16.03;9.13;;;7.20;99.90;;;;;;5051477;28;20217;-69
2022/01/14 12:56:30;;;;;;;12.17;7.83;;;7.10;99.90;;;;;;5055220;28;20175;-68
2022/01/14 12:59:01;;;;;;;10.03;8.07;;;7.10;99.90;;;;;;5053742;28;20731;-68
2022/01/14 13:01:47;;;;;;;15.73;8.53;;;7.00;99.90;;;;;;5054050;28;20182;-68
2022/01/14 13:04:14;;;;;;;14.30;8.37;;;7.00;99.90;;;;;;5045059;28;20198;-71